Terminal Aerodrome Forecast
Issued by NWS Spokane, WA

Current Version | Previous Version | Text Only | Print | Product List | Glossary On
Versions: 1 2 3 4 5 6 7 8 9 10 11 12 13 14 15 16 17 18 19 20 21 22 23 24 25 26 27
000
FTUS46 KOTX 020537
TAFEAT
TAF
KEAT 020537Z 0206/0306 32008KT P6SM SCT150
     FM021900 28004KT P6SM VCTS SCT120CB
     FM022100 16004KT P6SM VCTS SCT100CB BKN150
     FM030300 32010KT P6SM SCT150 SCT200=

USA.gov is the U.S. government's official web portal to all federal, state and local government web resources and services.